createdAt,value
2023-01-07T00:01:10.774Z,96.40
2023-01-07T00:03:41.063Z,96.34
2023-01-07T00:06:11.939Z,96.10
2023-01-07T00:08:41.208Z,96.34
2023-01-07T00:11:10.940Z,96.51
2023-01-07T00:13:39.563Z,96.27
2023-01-07T00:16:09.993Z,96.41
2023-01-07T00:18:38.750Z,96.23
2023-01-07T00:21:10.807Z,96.30
2023-01-07T00:23:40.381Z,96.15
2023-01-07T00:26:10.559Z,96.18
2023-01-07T00:28:40.484Z,96.34
2023-01-07T00:31:11.693Z,96.25
2023-01-07T00:33:47.031Z,96.46
2023-01-07T00:36:16.539Z,96.51
2023-01-07T00:38:44.437Z,96.71
2023-01-07T00:41:12.699Z,96.24
2023-01-07T00:43:40.961Z,96.32
2023-01-07T00:46:11.631Z,96.49
2023-01-07T00:48:39.520Z,96.15
2023-01-07T00:51:07.651Z,96.25
2023-01-07T00:53:36.854Z,96.45
2023-01-07T00:56:05.384Z,96.26
2023-01-07T00:58:33.771Z,96.34
2023-01-07T01:01:03.235Z,96.47
2023-01-07T01:03:32.575Z,96.08
2023-01-07T01:06:02.784Z,96.41
2023-01-07T01:08:31.027Z,96.19
2023-01-07T01:11:05.860Z,96.14
2023-01-07T01:13:34.593Z,96.05
2023-01-07T01:16:03.196Z,96.44
2023-01-07T01:18:31.235Z,96.31
2023-01-07T01:21:04.720Z,96.29
2023-01-07T01:23:33.654Z,96.18
2023-01-07T01:26:08.091Z,96.38
2023-01-07T01:28:36.220Z,96.21
2023-01-07T01:31:04.413Z,96.04
2023-01-07T01:33:32.542Z,96.08
2023-01-07T01:36:04.095Z,96.22
2023-01-07T01:38:31.975Z,96.19
2023-01-07T01:40:59.792Z,96.33
2023-01-07T01:43:33.545Z,96.46
2023-01-07T01:46:04.232Z,96.40
2023-01-07T01:48:34.832Z,96.43
2023-01-07T01:51:04.109Z,96.45
2023-01-07T01:53:35.518Z,96.08
2023-01-07T01:56:08.345Z,96.45
2023-01-07T01:58:40.528Z,96.30
2023-01-07T02:01:08.857Z,96.40
2023-01-07T02:03:38.739Z,96.50
2023-01-07T02:06:10.710Z,96.53
2023-01-07T02:08:38.515Z,96.58
2023-01-07T02:11:18.226Z,96.50
2023-01-07T02:14:03.479Z,96.39
2023-01-07T02:16:38.474Z,96.46
2023-01-07T02:19:36.857Z,96.52
2023-01-07T02:22:11.275Z,96.66
2023-01-07T02:25:00.047Z,96.35
2023-01-07T02:27:53.318Z,96.56
2023-01-07T02:30:51.793Z,96.33
2023-01-07T02:33:34.623Z,96.36
2023-01-07T02:36:15.493Z,96.15
2023-01-07T02:38:57.096Z,96.44
2023-01-07T02:41:35.491Z,96.50
2023-01-07T02:44:06.061Z,96.55
2023-01-07T02:46:39.819Z,96.45
2023-01-07T02:49:12.378Z,96.43
2023-01-07T02:51:41.627Z,96.35
2023-01-07T02:54:13.471Z,96.37
2023-01-07T02:56:57.294Z,96.53
2023-01-07T02:59:55.005Z,96.69
2023-01-07T03:02:39.835Z,96.47
2023-01-07T03:05:28.477Z,96.55
2023-01-07T03:08:09.879Z,96.54
2023-01-07T03:10:43.903Z,96.41
2023-01-07T03:13:17.725Z,96.46
2023-01-07T03:15:50.247Z,96.77
2023-01-07T03:18:21.455Z,96.69
2023-01-07T03:20:54.567Z,96.66
2023-01-07T03:23:26.232Z,96.60
2023-01-07T03:25:56.060Z,96.66
2023-01-07T03:28:29.490Z,96.79
2023-01-07T03:30:59.077Z,96.61
2023-01-07T03:33:32.332Z,96.88
2023-01-07T03:36:05.272Z,96.61
2023-01-07T03:38:34.870Z,96.73
2023-01-07T03:41:03.675Z,96.70
2023-01-07T03:43:30.627Z,96.93
2023-01-07T03:46:00.796Z,96.82
2023-01-07T03:48:28.723Z,97.06
2023-01-07T03:50:56.724Z,97.02
2023-01-07T03:53:25.883Z,97.02
2023-01-07T03:55:53.767Z,97.07
2023-01-07T03:58:22.688Z,97.21
2023-01-07T04:00:50.561Z,97.46
2023-01-07T04:03:18.547Z,97.32
2023-01-07T04:05:46.484Z,97.37
2023-01-07T04:08:17.039Z,97.55
2023-01-07T04:10:46.321Z,97.77
2023-01-07T04:13:14.275Z,98.06
2023-01-07T04:15:44.713Z,97.87
2023-01-07T04:18:12.735Z,97.99
2023-01-07T04:20:40.614Z,98.05
2023-01-07T04:23:08.440Z,98.54
2023-01-07T04:25:36.476Z,98.23
2023-01-07T04:28:06.265Z,98.50
2023-01-07T04:30:34.410Z,98.86
2023-01-07T04:33:02.385Z,98.97
2023-01-07T04:35:30.278Z,99.11
2023-01-07T04:37:58.202Z,99.11
2023-01-07T04:40:26.306Z,99.30
2023-01-07T04:42:54.295Z,99.45
2023-01-07T04:45:23.519Z,99.96
2023-01-07T04:47:51.557Z,99.72
2023-01-07T04:50:19.562Z,99.83
2023-01-07T04:52:48.194Z,99.97
2023-01-07T04:55:16.423Z,99.98
2023-01-07T04:57:44.779Z,100.00
2023-01-07T05:00:13.439Z,100.00
2023-01-07T05:02:42.996Z,100.00
2023-01-07T05:05:11.099Z,100.00
2023-01-07T05:07:39.049Z,100.00
2023-01-07T05:10:07.741Z,100.00
2023-01-07T05:12:36.385Z,100.00
2023-01-07T05:15:05.422Z,100.00
2023-01-07T05:17:33.350Z,100.00
2023-01-07T05:20:02.641Z,100.00
2023-01-07T05:22:30.645Z,100.00
2023-01-07T05:24:58.674Z,100.00
2023-01-07T05:27:26.753Z,100.00
2023-01-07T05:29:54.786Z,100.00
2023-01-07T05:32:22.753Z,100.00
2023-01-07T05:34:50.578Z,100.00
2023-01-07T05:37:19.882Z,100.00
2023-01-07T05:39:47.860Z,100.00
2023-01-07T05:42:15.745Z,100.00
2023-01-07T05:44:43.640Z,100.00
2023-01-07T05:47:11.627Z,100.00
2023-01-07T05:49:39.475Z,100.00
2023-01-07T05:52:07.412Z,100.00
2023-01-07T05:54:36.672Z,100.00
2023-01-07T05:57:04.561Z,100.00
2023-01-07T05:59:34.792Z,100.00
2023-01-07T06:02:03.061Z,100.00
2023-01-07T06:04:31.066Z,100.00
2023-01-07T06:06:58.975Z,100.00
2023-01-07T06:09:28.523Z,100.00
2023-01-07T06:11:58.735Z,100.00
2023-01-07T06:14:26.636Z,100.00
2023-01-07T06:16:54.533Z,100.00
2023-01-07T06:19:23.380Z,100.00
2023-01-07T06:21:51.293Z,100.00
2023-01-07T06:24:19.302Z,100.00
2023-01-07T06:26:47.147Z,100.00
2023-01-07T06:29:16.464Z,100.00
2023-01-07T06:31:44.427Z,100.00
2023-01-07T06:34:12.319Z,100.00
2023-01-07T06:36:40.210Z,100.00
2023-01-07T06:39:08.234Z,100.00
2023-01-07T06:41:36.037Z,100.00
2023-01-07T06:44:04.115Z,100.00
2023-01-07T06:46:33.551Z,100.00
2023-01-07T06:49:01.422Z,100.00
2023-01-07T06:51:29.461Z,100.00
2023-01-07T06:53:57.346Z,100.00
2023-01-07T06:56:25.305Z,100.00
2023-01-07T06:58:53.291Z,100.00
2023-01-07T07:01:21.512Z,100.00
2023-01-07T07:03:51.092Z,100.00
2023-01-07T07:06:19.021Z,100.00
2023-01-07T07:08:46.995Z,100.00
2023-01-07T07:11:14.827Z,100.00
2023-01-07T07:13:42.776Z,100.00
2023-01-07T07:16:10.824Z,100.00
2023-01-07T07:18:40.339Z,100.00
2023-01-07T07:21:09.652Z,100.00
2023-01-07T07:23:37.591Z,100.00
2023-01-07T07:26:05.652Z,100.00
2023-01-07T07:28:33.680Z,100.00
2023-01-07T07:31:01.741Z,100.00
2023-01-07T07:33:29.683Z,100.00
2023-01-07T07:35:58.458Z,100.00
2023-01-07T07:38:27.825Z,100.00
2023-01-07T07:40:56.855Z,100.00
2023-01-07T07:43:24.755Z,100.00
2023-01-07T07:45:52.802Z,100.00
2023-01-07T07:48:20.600Z,100.00
2023-01-07T07:50:51.825Z,100.00
2023-01-07T07:53:19.833Z,100.00
2023-01-07T07:55:49.256Z,100.00
2023-01-07T07:58:17.151Z,100.00
2023-01-07T08:00:45.111Z,100.00
2023-01-07T08:03:13.060Z,100.00
2023-01-07T08:05:43.274Z,100.00
2023-01-07T08:08:12.657Z,100.00
2023-01-07T08:10:41.295Z,100.00
2023-01-07T08:13:11.101Z,100.00
2023-01-07T08:15:39.358Z,100.00
2023-01-07T08:18:09.672Z,100.00
2023-01-07T08:20:39.412Z,100.00
2023-01-07T08:23:09.015Z,100.00
2023-01-07T08:25:36.866Z,100.00
2023-01-07T08:28:05.560Z,100.00
2023-01-07T08:30:35.383Z,100.00
2023-01-07T08:33:05.325Z,100.00
2023-01-07T08:35:33.452Z,100.00
2023-01-07T08:38:05.915Z,100.00
2023-01-07T08:40:34.158Z,100.00
2023-01-07T08:43:03.188Z,100.00
2023-01-07T08:45:32.223Z,100.00
2023-01-07T08:48:01.461Z,100.00
2023-01-07T08:50:31.707Z,100.00
2023-01-07T08:53:00.027Z,100.00
2023-01-07T08:55:28.032Z,100.00
2023-01-07T08:57:55.951Z,100.00
2023-01-07T09:00:24.765Z,100.00
2023-01-07T09:02:52.707Z,100.00
2023-01-07T09:05:22.296Z,100.00
2023-01-07T09:07:53.435Z,100.00
2023-01-07T09:10:21.587Z,100.00
2023-01-07T09:12:49.610Z,100.00
2023-01-07T09:15:17.779Z,100.00
2023-01-07T09:17:45.558Z,100.00
2023-01-07T09:20:13.888Z,100.00
2023-01-07T09:22:43.251Z,100.00
2023-01-07T09:25:11.224Z,100.00
2023-01-07T09:27:39.847Z,100.00
2023-01-07T09:30:09.587Z,100.00
2023-01-07T09:32:37.604Z,100.00
2023-01-07T09:35:06.748Z,100.00
2023-01-07T09:37:34.744Z,100.00
2023-01-07T09:40:04.195Z,100.00
2023-01-07T09:42:41.785Z,100.00
2023-01-07T09:45:17.382Z,100.00
2023-01-07T09:47:49.378Z,100.00
2023-01-07T09:50:26.903Z,100.00
2023-01-07T09:52:59.179Z,100.00
2023-01-07T09:55:34.611Z,100.00
2023-01-07T09:58:02.699Z,100.00
2023-01-07T10:00:32.533Z,100.00
2023-01-07T10:03:14.950Z,100.00
2023-01-07T10:05:54.299Z,100.00
2023-01-07T10:08:32.609Z,100.00
2023-01-07T10:11:15.906Z,100.00
2023-01-07T10:13:55.950Z,100.00
2023-01-07T10:16:32.576Z,100.00
2023-01-07T10:19:08.055Z,100.00
2023-01-07T10:21:42.978Z,100.00
2023-01-07T10:24:21.743Z,100.00
2023-01-07T10:26:55.675Z,100.00
2023-01-07T10:29:31.506Z,100.00
2023-01-07T10:32:04.705Z,100.00
2023-01-07T10:34:37.138Z,100.00
2023-01-07T10:37:08.850Z,100.00
2023-01-07T10:39:50.843Z,100.00
2023-01-07T10:42:28.792Z,100.00
2023-01-07T10:45:24.619Z,100.00
2023-01-07T10:48:06.379Z,100.00
2023-01-07T10:50:50.443Z,100.00
2023-01-07T10:53:27.939Z,100.00
2023-01-07T10:56:06.802Z,100.00
2023-01-07T10:58:40.797Z,100.00
2023-01-07T11:01:09.917Z,100.00
2023-01-07T11:03:40.237Z,100.00
2023-01-07T11:06:13.855Z,100.00
2023-01-07T11:08:43.761Z,100.00
2023-01-07T11:11:16.931Z,100.00
2023-01-07T11:13:57.606Z,100.00
2023-01-07T11:16:30.217Z,100.00
2023-01-07T11:19:03.243Z,100.00
2023-01-07T11:21:43.384Z,100.00
2023-01-07T11:24:33.158Z,100.00
2023-01-07T11:27:04.687Z,100.00
2023-01-07T11:29:39.892Z,100.00
2023-01-07T11:32:19.861Z,100.00
2023-01-07T11:34:56.279Z,100.00
2023-01-07T11:37:38.386Z,100.00
2023-01-07T11:40:22.434Z,100.00
2023-01-07T11:42:53.486Z,100.00
2023-01-07T11:45:25.068Z,100.00
2023-01-07T11:48:08.081Z,100.00
2023-01-07T11:50:38.103Z,100.00
2023-01-07T11:53:23.023Z,100.00
2023-01-07T11:55:59.607Z,100.00
2023-01-07T11:58:31.130Z,100.00
2023-01-07T12:01:14.807Z,100.00
2023-01-07T12:03:45.385Z,100.00
2023-01-07T12:06:22.164Z,100.00
2023-01-07T12:08:54.927Z,100.00
2023-01-07T12:11:23.563Z,100.00
2023-01-07T12:13:54.069Z,100.00
2023-01-07T12:16:29.459Z,100.00
2023-01-07T12:19:19.007Z,100.00
2023-01-07T12:21:59.554Z,100.00
2023-01-07T12:24:52.880Z,100.00
2023-01-07T12:27:32.629Z,100.00
2023-01-07T12:30:17.839Z,100.00
2023-01-07T12:32:59.285Z,100.00
2023-01-07T12:35:30.945Z,100.00
2023-01-07T12:38:04.886Z,100.00
2023-01-07T12:40:35.895Z,100.00
2023-01-07T12:43:12.912Z,100.00
2023-01-07T12:45:44.326Z,100.00
2023-01-07T12:48:22.499Z,100.00
2023-01-07T12:50:54.118Z,100.00
2023-01-07T12:53:29.241Z,100.00
2023-01-07T12:56:02.761Z,100.00
2023-01-07T12:58:40.976Z,100.00
2023-01-07T13:01:21.814Z,100.00
2023-01-07T13:04:03.287Z,100.00
2023-01-07T13:06:44.508Z,100.00
2023-01-07T13:09:28.827Z,100.00
2023-01-07T13:12:41.449Z,100.00
2023-01-07T13:15:16.432Z,100.00
2023-01-07T13:17:44.456Z,100.00
2023-01-07T13:20:16.601Z,100.00
2023-01-07T13:22:49.431Z,100.00
2023-01-07T13:25:33.028Z,100.00
2023-01-07T13:28:18.629Z,100.00
2023-01-07T13:30:58.698Z,100.00
2023-01-07T13:33:35.053Z,100.00
2023-01-07T13:36:16.169Z,100.00
2023-01-07T13:39:14.115Z,100.00
2023-01-07T13:42:04.043Z,100.00
2023-01-07T13:44:57.185Z,100.00
2023-01-07T13:47:28.696Z,100.00
2023-01-07T13:49:58.528Z,100.00
2023-01-07T13:52:31.038Z,100.00
2023-01-07T13:55:01.559Z,100.00
2023-01-07T13:57:46.416Z,100.00
2023-01-07T14:00:43.910Z,100.00
2023-01-07T14:03:34.933Z,100.00
2023-01-07T14:06:38.680Z,100.00
2023-01-07T14:09:28.314Z,100.00
2023-01-07T14:12:40.508Z,100.00
2023-01-07T14:15:44.503Z,100.00
2023-01-07T14:18:47.677Z,100.00
2023-01-07T14:21:36.777Z,100.00
2023-01-07T14:24:23.894Z,100.00
2023-01-07T14:27:00.652Z,100.00
2023-01-07T14:29:46.958Z,100.00
2023-01-07T14:32:27.455Z,100.00
2023-01-07T14:35:01.591Z,100.00
2023-01-07T14:37:38.516Z,100.00
2023-01-07T14:40:43.539Z,100.00
2023-01-07T14:43:45.838Z,100.00
2023-01-07T14:46:49.332Z,100.00
2023-01-07T14:49:43.803Z,100.00
2023-01-07T14:52:21.333Z,100.00
2023-01-07T14:55:12.957Z,100.00
2023-01-07T14:57:53.783Z,100.00
2023-01-07T15:00:44.361Z,100.00
2023-01-07T15:03:34.278Z,100.00
2023-01-07T15:06:30.040Z,100.00
2023-01-07T15:09:22.471Z,100.00
2023-01-07T15:12:10.938Z,100.00
2023-01-07T15:15:02.656Z,100.00
2023-01-07T15:17:31.136Z,100.00
2023-01-07T15:19:59.787Z,100.00
2023-01-07T15:22:56.013Z,100.00
2023-01-07T15:25:45.900Z,100.00
2023-01-07T15:28:22.509Z,100.00
2023-01-07T15:30:58.373Z,100.00
2023-01-07T15:33:40.532Z,100.00
2023-01-07T15:36:12.599Z,100.00
2023-01-07T15:38:46.185Z,100.00
2023-01-07T15:41:27.527Z,100.00
2023-01-07T15:43:56.704Z,100.00
2023-01-07T15:46:26.602Z,100.00
2023-01-07T15:49:15.158Z,100.00
2023-01-07T15:51:45.079Z,100.00
2023-01-07T15:54:41.376Z,100.00
2023-01-07T15:57:14.194Z,100.00
2023-01-07T15:59:45.576Z,100.00
2023-01-07T16:02:22.115Z,100.00
2023-01-07T16:04:52.876Z,100.00
2023-01-07T16:07:25.136Z,100.00
2023-01-07T16:09:55.604Z,100.00
2023-01-07T16:12:32.493Z,100.00
2023-01-07T16:15:00.590Z,100.00
2023-01-07T16:17:28.658Z,100.00
2023-01-07T16:20:13.481Z,100.00
2023-01-07T16:22:43.394Z,100.00
2023-01-07T16:25:20.230Z,100.00
2023-01-07T16:27:48.647Z,100.00
2023-01-07T16:30:17.511Z,100.00
2023-01-07T16:32:47.241Z,100.00
2023-01-07T16:35:20.382Z,100.00
2023-01-07T16:37:50.536Z,100.00
2023-01-07T16:40:28.253Z,100.00
2023-01-07T16:42:57.170Z,100.00
2023-01-07T16:45:28.483Z,100.00
2023-01-07T16:48:17.953Z,100.00
2023-01-07T16:50:47.560Z,100.00
2023-01-07T16:53:24.527Z,100.00
2023-01-07T16:55:55.914Z,100.00
2023-01-07T16:58:29.755Z,100.00
2023-01-07T17:01:00.884Z,100.00
2023-01-07T17:03:31.171Z,100.00
2023-01-07T17:06:05.544Z,100.00
2023-01-07T17:08:34.882Z,100.00
2023-01-07T17:11:09.237Z,100.00
2023-01-07T17:13:40.116Z,100.00
2023-01-07T17:16:24.168Z,100.00
2023-01-07T17:18:52.762Z,100.00
2023-01-07T17:21:43.258Z,100.00
2023-01-07T17:24:52.703Z,100.00
2023-01-07T17:27:27.906Z,100.00
2023-01-07T17:29:56.411Z,100.00
2023-01-07T17:32:25.307Z,100.00
2023-01-07T17:34:53.175Z,100.00
2023-01-07T17:37:21.279Z,100.00
2023-01-07T17:39:51.331Z,100.00
2023-01-07T17:42:44.093Z,100.00
2023-01-07T17:45:17.298Z,100.00
2023-01-07T17:47:45.474Z,100.00
2023-01-07T17:50:15.643Z,100.00
2023-01-07T17:52:46.296Z,100.00
2023-01-07T17:55:16.419Z,100.00
2023-01-07T17:57:45.631Z,100.00
2023-01-07T18:00:19.086Z,100.00
2023-01-07T18:02:49.067Z,100.00
2023-01-07T18:05:19.342Z,100.00
2023-01-07T18:07:47.466Z,100.00
2023-01-07T18:10:16.924Z,100.00
2023-01-07T18:12:45.570Z,100.00
2023-01-07T18:15:21.048Z,100.00
2023-01-07T18:17:49.108Z,100.00
2023-01-07T18:20:19.813Z,100.00
2023-01-07T18:22:48.266Z,100.00
2023-01-07T18:25:18.555Z,100.00
2023-01-07T18:27:48.616Z,100.00
2023-01-07T18:30:18.830Z,100.00
2023-01-07T18:32:47.202Z,100.00
2023-01-07T18:35:15.443Z,100.00
2023-01-07T18:37:43.389Z,100.00
2023-01-07T18:40:12.106Z,100.00
2023-01-07T18:42:39.969Z,100.00
2023-01-07T18:45:10.276Z,100.00
2023-01-07T18:47:38.518Z,100.00
2023-01-07T18:50:08.519Z,100.00
2023-01-07T18:52:38.629Z,100.00
2023-01-07T18:55:07.431Z,100.00
2023-01-07T18:57:35.385Z,100.00
2023-01-07T19:00:03.476Z,100.00
2023-01-07T19:02:32.763Z,100.00
2023-01-07T19:05:00.718Z,100.00
2023-01-07T19:07:31.186Z,100.00
2023-01-07T19:09:59.276Z,100.00
2023-01-07T19:12:27.211Z,100.00
2023-01-07T19:14:55.206Z,100.00
2023-01-07T19:17:23.465Z,100.00
2023-01-07T19:19:52.802Z,100.00
2023-01-07T19:22:21.257Z,100.00
2023-01-07T19:24:49.300Z,100.00
2023-01-07T19:27:17.172Z,100.00
2023-01-07T19:29:44.986Z,100.00
2023-01-07T19:32:12.950Z,100.00
2023-01-07T19:34:40.935Z,100.00
2023-01-07T19:37:10.177Z,100.00
2023-01-07T19:39:38.286Z,100.00
2023-01-07T19:42:06.240Z,100.00
2023-01-07T19:44:34.408Z,100.00
2023-01-07T19:47:02.296Z,100.00
2023-01-07T19:49:30.122Z,100.00
2023-01-07T19:51:58.190Z,100.00
2023-01-07T19:54:27.497Z,100.00
2023-01-07T19:56:55.589Z,100.00
2023-01-07T19:59:24.123Z,100.00
2023-01-07T20:01:53.700Z,100.00
2023-01-07T20:04:21.934Z,100.00
2023-01-07T20:06:50.593Z,100.00
2023-01-07T20:09:18.797Z,100.00
2023-01-07T20:11:48.258Z,100.00
2023-01-07T20:14:16.582Z,100.00
2023-01-07T20:16:44.522Z,100.00
2023-01-07T20:19:13.200Z,100.00
2023-01-07T20:21:41.211Z,100.00
2023-01-07T20:24:10.231Z,100.00
2023-01-07T20:26:39.013Z,100.00
2023-01-07T20:29:08.402Z,100.00
2023-01-07T20:31:36.430Z,100.00
2023-01-07T20:34:04.353Z,100.00
2023-01-07T20:36:33.272Z,100.00
2023-01-07T20:39:05.402Z,100.00
2023-01-07T20:41:34.943Z,100.00
2023-01-07T20:44:05.159Z,100.00
2023-01-07T20:46:34.962Z,100.00
2023-01-07T20:49:03.136Z,100.00
2023-01-07T20:51:31.096Z,100.00
2023-01-07T20:53:59.467Z,100.00
2023-01-07T20:56:31.881Z,100.00
2023-01-07T20:59:00.971Z,100.00
2023-01-07T21:01:29.608Z,100.00
2023-01-07T21:04:01.534Z,100.00
2023-01-07T21:06:29.515Z,100.00
2023-01-07T21:08:57.790Z,100.00
2023-01-07T21:11:26.009Z,100.00
2023-01-07T21:13:56.187Z,100.00
2023-01-07T21:16:24.615Z,100.00
2023-01-07T21:18:52.662Z,100.00
2023-01-07T21:21:25.294Z,100.00
2023-01-07T21:23:54.211Z,100.00
2023-01-07T21:26:22.731Z,100.00
2023-01-07T21:28:56.144Z,100.00
2023-01-07T21:31:24.528Z,100.00
2023-01-07T21:33:54.799Z,100.00
2023-01-07T21:36:24.867Z,100.00
2023-01-07T21:38:55.217Z,100.00
2023-01-07T21:41:24.701Z,100.00
2023-01-07T21:43:53.180Z,100.00
2023-01-07T21:46:22.633Z,100.00
2023-01-07T21:48:51.866Z,100.00
2023-01-07T21:51:22.392Z,100.00
2023-01-07T21:53:55.627Z,100.00
2023-01-07T21:56:25.033Z,100.00
2023-01-07T21:58:53.561Z,100.00
2023-01-07T22:01:21.616Z,100.00
2023-01-07T22:03:50.622Z,100.00
2023-01-07T22:06:20.944Z,100.00
2023-01-07T22:08:49.267Z,100.00
2023-01-07T22:11:19.391Z,100.00
2023-01-07T22:13:51.047Z,100.00
2023-01-07T22:16:19.313Z,100.00
2023-01-07T22:18:47.605Z,100.00
2023-01-07T22:21:15.687Z,100.00
2023-01-07T22:23:44.968Z,100.00
2023-01-07T22:26:14.442Z,100.00
2023-01-07T22:28:46.375Z,100.00
2023-01-07T22:31:19.603Z,100.00
2023-01-07T22:33:47.478Z,100.00
2023-01-07T22:36:19.301Z,100.00
2023-01-07T22:38:47.296Z,100.00
2023-01-07T22:41:15.246Z,100.00
2023-01-07T22:43:44.586Z,100.00
2023-01-07T22:46:17.038Z,100.00
2023-01-07T22:48:45.665Z,100.00
2023-01-07T22:51:20.142Z,100.00
2023-01-07T22:53:48.389Z,100.00
2023-01-07T22:56:16.369Z,100.00
2023-01-07T22:58:46.204Z,100.00
2023-01-07T23:01:15.991Z,100.00
2023-01-07T23:03:45.318Z,100.00
2023-01-07T23:06:15.006Z,100.00
2023-01-07T23:08:43.494Z,100.00
2023-01-07T23:11:32.434Z,100.00
2023-01-07T23:14:01.694Z,100.00
2023-01-07T23:16:29.754Z,100.00
2023-01-07T23:18:57.817Z,100.00
2023-01-07T23:21:25.703Z,100.00
2023-01-07T23:23:53.587Z,100.00
2023-01-07T23:26:21.764Z,100.00
2023-01-07T23:28:49.569Z,100.00
2023-01-07T23:31:18.816Z,100.00
2023-01-07T23:33:47.322Z,100.00
2023-01-07T23:36:15.171Z,100.00
2023-01-07T23:38:43.261Z,100.00
2023-01-07T23:41:12.889Z,100.00
2023-01-07T23:43:40.789Z,100.00
2023-01-07T23:46:09.255Z,100.00
2023-01-07T23:48:39.422Z,100.00
2023-01-07T23:51:09.481Z,100.00
2023-01-07T23:53:38.013Z,100.00
2023-01-07T23:56:07.815Z,100.00
2023-01-07T23:58:36.100Z,100.00
